Sunday, April 22, 2018, 9:55 PM EDT
Back to Local

KMSS, Massena International -richards Fld

Location: Massena, NY, United States Lat: 44.933
Local Time: 9:55 PM EDT ( 1:55 GMT) Lon: -74.85
Time Zone: US/Eastern Elev: 213 ft

Show me the last for .
Show Decoded

2018-04-22 20:53 METAR KMSS 230053Z AUTO 00000KT 10SM CLR 05/M05 A3040 RMK AO2 SLP299 T00501050 =
2018-04-22 19:53 METAR KMSS 222353Z AUTO 33005KT 10SM CLR 12/M12 A3038 RMK AO2 SLP292 T01221122
                 10156 20122 53003 =
2018-04-22 18:53 METAR KMSS 222253Z AUTO 33007KT 10SM CLR 14/M12 A3037 RMK AO2 SLP288 T01391117 =
2018-04-22 17:53 METAR KMSS 222153Z AUTO 29007KT 10SM CLR 14/M10 A3037 RMK AO2 SLP289 T01441100 =
2018-04-22 16:53 METAR KMSS 222053Z AUTO 32007KT 10SM CLR 15/M09 A3038 RMK AO2 SLP290 T01501089
                 56016 =
2018-04-22 15:53 METAR KMSS 221953Z AUTO 34010KT 10SM CLR 16/M08 A3039 RMK AO2 SLP293 T01561078 =
2018-04-22 14:53 METAR KMSS 221853Z AUTO 26007KT 10SM CLR 14/M06 A3041 RMK AO2 SLP301 T01441061 =
2018-04-22 13:53 METAR KMSS 221753Z AUTO 26009KT 10SM CLR 14/M06 A3042 RMK AO2 SLP305 T01391056
                 10139 20022 58008 =
2018-04-22 12:53 METAR KMSS 221653Z AUTO 25007KT 10SM CLR 12/M07 A3043 RMK AO2 SLP310 T01221067 =
2018-04-22 11:53 METAR KMSS 221553Z AUTO VRB04KT 10SM CLR 12/M06 A3045 RMK AO2 SLP314 T01171061 =
2018-04-22 10:53 METAR KMSS 221453Z AUTO 26003KT 10SM CLR 11/M06 A3045 RMK AO2 SLP315 T01061061
                 50004 =
2018-04-22 09:53 METAR KMSS 221353Z AUTO VRB03KT 10SM CLR 09/M03 A3045 RMK AO2 SLP315 T00891033 =
2018-04-22 08:53 METAR KMSS 221253Z AUTO 00000KT 10SM CLR 06/M03 A3044 RMK AO2 SLP313 T00561033 =
2018-04-22 07:53 METAR KMSS 221153Z AUTO 25004KT 10SM CLR 02/M02 A3044 RMK AO2 SLP311 I6000
                 T00221017 10022 21044 53013 =
2018-04-22 06:53 METAR KMSS 221053Z AUTO 00000KT 10SM CLR M03/M04 A3043 RMK AO2 SLP307 I1000
                 T10281039 =
2018-04-22 05:53 METAR KMSS 220953Z AUTO 00000KT 10SM CLR M04/M05 A3041 RMK AO2 SLP300 T10441050
                 =
2018-04-22 04:53 METAR KMSS 220853Z AUTO 00000KT 10SM CLR M03/M04 A3040 RMK AO2 SLP298 T10281044
                 52006 =
2018-04-22 03:53 METAR KMSS 220753Z AUTO 21003KT 10SM CLR M01/M03 A3039 RMK AO2 SLP296 T10111033
                 =
2018-04-22 02:53 METAR KMSS 220653Z AUTO 00000KT 10SM CLR M02/M04 A3038 RMK AO2 SLP293 T10221044
                 =
2018-04-22 01:53 METAR KMSS 220553Z AUTO 00000KT 10SM CLR 00/M04 A3038 RMK AO2 SLP291 T00001044
                 10094 21017 53008 =
2018-04-22 00:53 METAR KMSS 220453Z AUTO 00000KT 10SM CLR 00/M04 A3037 RMK AO2 SLP289 T00001039
                 401221039 =
2018-04-21 23:53 METAR KMSS 220353Z AUTO 00000KT 10SM CLR 00/M03 A3036 RMK AO2 SLP285 T00001028 =
2018-04-21 22:53 METAR KMSS 220253Z AUTO 00000KT 10SM CLR 00/M04 A3036 RMK AO2 SLP284 T00001039
                 51008 =

Support USWX by starting your Amazon purchase here.